Time;durP1;ratioP1;P1;durP2;ratioP2;P2;SDS_P1;SDS_P2;PMS_P1;PMS_P2;Temp;Humidity;BMP_temperature;BMP_pressure;BME280_temperature;BME280_humidity;BME280_pressure;Samples;Min_cycle;Max_cycle;Signal;HPM_P1;HPM_P2
2021/05/08 00:01:14;;;;;;;2.30;2.10;;;;;;;19.01;62.55;97808.44;5048617;28;20232;-67
2021/05/08 00:03:40;;;;;;;2.70;2.30;;;;;;;19.29;62.90;97856.41;5047875;28;20232;-67
2021/05/08 00:06:08;;;;;;;2.40;2.20;;;;;;;19.29;62.45;97854.75;5049297;28;20316;-66
2021/05/08 00:08:35;;;;;;;2.50;2.30;;;;;;;18.97;62.59;97796.41;5048911;28;20266;-65
2021/05/08 00:11:01;;;;;;;2.17;2.00;;;;;;;18.82;62.56;97766.84;5048333;28;20193;-66
2021/05/08 00:13:27;;;;;;;2.60;2.40;;;;;;;19.30;62.26;97848.84;5047915;28;20196;-66
2021/05/08 00:15:53;;;;;;;3.10;2.77;;;;;;;19.30;62.49;97855.63;5048035;28;20240;-66
2021/05/08 00:18:19;;;;;;;2.40;2.20;;;;;;;19.30;62.63;97853.09;5047758;28;20236;-66
2021/05/08 00:20:46;;;;;;;2.33;2.13;;;;;;;19.14;62.49;97837.88;5049729;28;20197;-66
2021/05/08 00:23:12;;;;;;;2.37;2.17;;;;;;;19.30;62.29;97848.00;5035524;28;20204;-66
2021/05/08 00:25:38;;;;;;;2.30;2.10;;;;;;;19.30;62.38;97855.63;5049278;28;20233;-66
2021/05/08 00:28:19;;;;;;;2.30;2.10;;;;;;;19.30;62.60;97859.03;5048872;28;20690;-65
2021/05/08 00:30:45;;;;;;;2.67;2.37;;;;;;;19.30;62.31;97850.53;5047463;28;20237;-66
2021/05/08 00:33:11;;;;;;;2.30;2.10;;;;;;;18.99;62.23;97794.81;5048861;28;20224;-66
2021/05/08 00:35:37;;;;;;;2.30;2.10;;;;;;;19.31;62.36;97854.81;5047880;28;20736;-65
2021/05/08 00:38:03;;;;;;;2.47;2.20;;;;;;;18.27;61.77;97677.84;5047104;28;20248;-65
2021/05/08 00:40:30;;;;;;;2.33;2.13;;;;;;;19.32;62.37;97851.44;5047561;28;20236;-65
2021/05/08 00:42:56;;;;;;;2.50;2.30;;;;;;;18.75;62.05;97750.44;5050294;28;20550;-65
2021/05/08 00:45:22;;;;;;;2.40;2.20;;;;;;;19.31;62.13;97855.69;5051786;28;20233;-66
2021/05/08 00:47:48;;;;;;;2.70;2.50;;;;;;;18.81;62.08;97763.44;5052665;28;20275;-65
2021/05/08 00:50:17;;;;;;;2.17;2.00;;;;;;;19.32;62.06;97856.53;5045844;28;20228;-65
2021/05/08 00:52:43;;;;;;;2.20;2.10;;;;;;;19.31;62.18;97850.59;5052627;28;20758;-65
2021/05/08 00:55:10;;;;;;;2.43;2.23;;;;;;;19.31;62.23;97853.16;5031354;28;20680;-65
2021/05/08 00:57:36;;;;;;;2.50;2.30;;;;;;;19.11;62.06;97831.00;5050554;28;20345;-66
2021/05/08 01:00:06;;;;;;;2.50;2.30;;;;;;;19.15;61.89;97840.50;5048526;28;20292;-66
2021/05/08 01:02:32;;;;;;;2.40;2.20;;;;;;;19.29;61.82;97866.59;5054764;28;20197;-66
2021/05/08 01:04:59;;;;;;;2.80;2.50;;;;;;;19.28;61.56;97864.88;5047484;28;20227;-66
2021/05/08 01:07:25;;;;;;;2.53;2.30;;;;;;;19.29;61.67;97864.06;5049876;28;20257;-66
2021/05/08 01:09:51;;;;;;;2.50;2.30;;;;;;;19.14;61.91;97841.31;5050785;28;20228;-66
2021/05/08 01:12:17;;;;;;;2.70;2.50;;;;;;;18.73;61.97;97768.97;5051020;28;20216;-65
2021/05/08 01:14:44;;;;;;;2.60;2.40;;;;;;;19.02;62.00;97819.53;5051136;28;20262;-65
2021/05/08 01:17:10;;;;;;;2.80;2.60;;;;;;;18.89;62.05;97794.34;5051906;28;20252;-66
2021/05/08 01:19:36;;;;;;;2.43;2.23;;;;;;;18.73;62.08;97766.44;5031411;28;20659;-66
2021/05/08 01:22:03;;;;;;;2.60;2.40;;;;;;;18.96;62.13;97799.75;5031779;28;20338;-66
2021/05/08 01:24:29;;;;;;;2.90;2.60;;;;;;;19.05;62.41;97819.66;5045157;28;20284;-66
2021/05/08 01:26:55;;;;;;;2.33;2.13;;;;;;;18.74;62.42;97765.66;5067940;28;20298;-65
2021/05/08 01:29:21;;;;;;;2.87;2.47;;;;;;;18.74;61.92;97801.28;5051218;28;20243;-66
2021/05/08 01:31:47;;;;;;;2.93;2.43;;;;;;;19.13;61.98;97828.50;5067670;28;20236;-66
2021/05/08 01:34:13;;;;;;;2.60;2.40;;;;;;;19.28;61.69;97857.22;5067997;28;20200;-66
2021/05/08 01:36:39;;;;;;;2.40;2.20;;;;;;;19.28;61.66;97860.66;5052414;28;20640;-66
2021/05/08 01:39:06;;;;;;;2.83;2.63;;;;;;;19.15;61.81;97834.53;5052202;28;20563;-66
2021/05/08 01:41:32;;;;;;;2.60;2.40;;;;;;;19.15;61.89;97832.84;5031225;28;20283;-67
2021/05/08 01:43:58;;;;;;;2.60;2.40;;;;;;;18.72;61.71;97759.63;5020915;28;20229;-67
2021/05/08 01:46:24;;;;;;;2.60;2.40;;;;;;;19.15;61.71;97840.50;5047718;28;20271;-67
2021/05/08 01:48:51;;;;;;;2.63;2.43;;;;;;;19.29;61.84;97856.41;5014660;28;20604;-66
2021/05/08 01:51:17;;;;;;;2.53;2.30;;;;;;;18.78;61.68;97768.41;5049186;28;20283;-66
2021/05/08 01:53:43;;;;;;;2.77;2.57;;;;;;;19.21;61.45;97848.41;5066584;28;20193;-67
2021/05/08 01:56:09;;;;;;;2.60;2.40;;;;;;;18.74;61.90;97756.31;5052101;28;20312;-67
2021/05/08 01:58:35;;;;;;;2.77;2.57;;;;;;;19.14;61.69;97835.34;5067321;28;20639;-66
2021/05/08 02:01:01;;;;;;;2.80;2.40;;;;;;;19.13;61.50;97833.59;5067443;28;20224;-66
2021/05/08 02:03:28;;;;;;;2.27;2.07;;;;;;;19.28;61.45;97857.22;5050486;28;20740;-66
2021/05/08 02:05:54;;;;;;;3.27;2.97;;;;;;;19.26;61.07;97852.03;5051665;28;20231;-66
2021/05/08 02:08:20;;;;;;;3.17;2.57;;;;;;;19.26;60.91;97856.25;5051758;28;20290;-66
2021/05/08 02:10:46;;;;;;;2.80;2.60;;;;;;;18.73;61.01;97766.44;5051464;28;20237;-66
2021/05/08 02:13:13;;;;;;;2.47;2.27;;;;;;;19.25;61.28;97854.53;5050239;28;20193;-66
2021/05/08 02:15:39;;;;;;;2.40;2.20;;;;;;;19.11;61.42;97825.91;5050433;28;20718;-65
2021/05/08 02:18:06;;;;;;;2.50;2.30;;;;;;;19.19;61.52;97844.91;5050738;28;20641;-65
2021/05/08 02:20:35;;;;;;;2.60;2.40;;;;;;;18.95;61.35;97808.19;5050262;28;20221;-67
2021/05/08 02:23:02;;;;;;;2.97;2.73;;;;;;;19.25;61.43;97852.84;5050111;28;20200;-66
2021/05/08 02:25:28;;;;;;;2.43;2.23;;;;;;;19.13;61.54;97833.59;5034297;28;20235;-66
2021/05/08 02:27:54;;;;;;;2.60;2.40;;;;;;;19.21;61.49;97848.41;5066565;28;20225;-66
2021/05/08 02:30:21;;;;;;;2.80;2.37;;;;;;;19.26;61.48;97851.16;5050319;28;20326;-66
2021/05/08 02:32:48;;;;;;;2.40;2.20;;;;;;;19.07;61.47;97820.59;5066567;28;20209;-65
2021/05/08 02:35:15;;;;;;;2.50;2.30;;;;;;;19.20;61.29;97845.78;5066503;28;20284;-66
2021/05/08 02:37:41;;;;;;;2.43;2.23;;;;;;;19.10;61.28;97821.59;5033585;28;20311;-66
2021/05/08 02:40:09;;;;;;;2.97;2.77;;;;;;;18.95;61.23;97786.97;5050020;28;20205;-66
2021/05/08 02:42:35;;;;;;;2.50;2.30;;;;;;;17.82;61.23;97626.59;5050197;28;20225;-66
2021/05/08 02:45:02;;;;;;;2.70;2.50;;;;;;;19.28;61.21;97842.81;5049482;28;20678;-65
2021/05/08 02:47:28;;;;;;;3.00;2.70;;;;;;;19.12;61.28;97816.56;5051191;28;20277;-66
2021/05/08 02:49:54;;;;;;;2.70;2.50;;;;;;;19.29;60.93;97846.22;5049238;28;20624;-67
2021/05/08 02:52:21;;;;;;;2.60;2.40;;;;;;;19.12;61.06;97814.88;5051416;28;20201;-67
2021/05/08 02:54:48;;;;;;;2.80;2.60;;;;;;;18.82;61.22;97751.56;5050643;28;20208;-65
2021/05/08 02:57:14;;;;;;;2.50;2.30;;;;;;;18.72;61.01;97731.59;5066421;28;20223;-65
2021/05/08 02:59:40;;;;;;;2.67;2.47;;;;;;;19.21;60.44;97822.94;5032835;28;20189;-66
2021/05/08 03:02:06;;;;;;;3.00;2.40;;;;;;;19.03;60.41;97783.03;5049593;28;20755;-66
2021/05/08 03:04:33;;;;;;;2.60;2.40;;;;;;;19.25;60.40;97821.38;5048285;28;20205;-66
2021/05/08 03:07:01;;;;;;;2.60;2.40;;;;;;;19.24;60.62;97817.97;5032650;28;20737;-66
2021/05/08 03:09:28;;;;;;;2.63;2.10;;;;;;;17.84;60.64;97592.84;5049316;28;20572;-66
2021/05/08 03:11:54;;;;;;;2.67;2.37;;;;;;;19.25;60.81;97821.38;5050754;28;20559;-66
2021/05/08 03:14:20;;;;;;;2.70;2.50;;;;;;;18.82;61.07;97744.81;5050057;28;20243;-65
2021/05/08 03:17:01;;;;;;;2.77;2.57;;;;;;;19.25;60.79;97821.38;5035369;28;20244;-67
2021/05/08 03:19:36;;;;;;;2.50;2.30;;;;;;;19.11;60.79;97797.00;5049296;28;20545;-65
2021/05/08 03:22:03;;;;;;;2.53;2.33;;;;;;;19.10;61.00;97792.72;5065924;28;20726;-66
2021/05/08 03:24:29;;;;;;;2.60;2.40;;;;;;;19.25;60.95;97816.28;5048714;28;20674;-66
2021/05/08 03:26:56;;;;;;;2.60;2.40;;;;;;;19.25;60.96;97816.28;5065732;28;20252;-65
2021/05/08 03:29:22;;;;;;;2.60;2.40;;;;;;;19.18;60.97;97804.97;5065776;28;20279;-65
2021/05/08 03:31:48;;;;;;;3.03;2.73;;;;;;;19.23;60.49;97815.34;5050573;28;20254;-65
2021/05/08 03:34:14;;;;;;;2.70;2.50;;;;;;;19.15;61.38;97802.28;5049903;28;20196;-67
2021/05/08 03:36:40;;;;;;;2.50;2.30;;;;;;;19.19;60.88;97816.03;5050455;28;20378;-65
2021/05/08 03:39:06;;;;;;;2.23;2.10;;;;;;;19.18;60.73;97814.28;5048919;28;20201;-66
2021/05/08 03:41:32;;;;;;;2.83;2.60;;;;;;;19.18;60.82;97810.06;5048985;28;20228;-64
2021/05/08 03:43:59;;;;;;;2.60;2.40;;;;;;;18.84;60.73;97753.38;5065286;28;20225;-65
2021/05/08 03:46:25;;;;;;;2.93;2.73;;;;;;;18.96;60.42;97773.41;5065401;28;20232;-66
2021/05/08 03:48:52;;;;;;;2.63;2.43;;;;;;;19.10;60.22;97796.09;5048933;28;20232;-66
2021/05/08 03:51:18;;;;;;;3.00;2.70;;;;;;;19.09;60.13;97799.47;5048883;28;20204;-66
2021/05/08 03:53:44;;;;;;;4.33;3.07;;;;;;;17.83;59.81;97580.91;5048342;28;20201;-66
2021/05/08 03:56:10;;;;;;;2.60;2.40;;;;;;;19.20;60.05;97816.09;5050039;28;20260;-66
2021/05/08 03:58:37;;;;;;;2.83;2.50;;;;;;;19.09;60.12;97796.03;5049845;28;20234;-65
2021/05/08 04:01:03;;;;;;;2.97;2.70;;;;;;;18.66;60.15;97723.72;5048935;28;20237;-65
2021/05/08 04:03:29;;;;;;;3.43;2.70;;;;;;;18.76;60.38;97741.09;5064643;28;20193;-67
2021/05/08 04:05:55;;;;;;;2.63;2.43;;;;;;;19.22;60.37;97822.09;5065272;28;20709;-65
2021/05/08 04:08:21;;;;;;;2.60;2.40;;;;;;;19.02;60.76;97792.38;5049357;28;20244;-66
2021/05/08 04:10:48;;;;;;;2.60;2.40;;;;;;;19.23;60.60;97828.09;5028780;28;20241;-66
2021/05/08 04:13:14;;;;;;;2.80;2.60;;;;;;;18.69;60.60;97740.00;5032617;28;20629;-66
2021/05/08 04:15:40;;;;;;;2.50;2.30;;;;;;;19.22;60.57;97829.75;5065780;28;20235;-66
2021/05/08 04:18:07;;;;;;;3.40;2.80;;;;;;;19.02;60.72;97791.50;5035831;28;20417;-66
2021/05/08 04:20:33;;;;;;;2.77;2.57;;;;;;;19.07;60.35;97800.22;5069222;28;20761;-65
2021/05/08 04:23:02;;;;;;;2.57;2.37;;;;;;;18.68;60.37;97737.38;5068498;28;20667;-66
2021/05/08 04:25:28;;;;;;;3.00;2.70;;;;;;;19.25;60.21;97836.69;5052792;28;20236;-66
2021/05/08 04:27:54;;;;;;;2.50;2.30;;;;;;;19.16;60.30;97816.75;5052525;28;20666;-66
2021/05/08 04:30:21;;;;;;;2.60;2.40;;;;;;;19.09;60.18;97808.78;5035102;28;20247;-65
2021/05/08 04:32:47;;;;;;;2.90;2.70;;;;;;;18.67;60.09;97739.03;5051808;28;20204;-67
2021/05/08 04:35:13;;;;;;;3.43;2.60;;;;;;;19.01;59.94;97797.41;5052964;28;20196;-66
2021/05/08 04:37:39;;;;;;;2.77;2.57;;;;;;;19.06;59.49;97813.75;5052323;28;20802;-66
2021/05/08 04:40:06;;;;;;;2.90;2.70;;;;;;;19.09;59.03;97813.88;5053376;28;20224;-67
2021/05/08 04:42:32;;;;;;;3.20;2.90;;;;;;;19.04;59.02;97806.03;5052288;28;20298;-66
2021/05/08 04:44:58;;;;;;;2.93;2.63;;;;;;;18.66;59.55;97741.53;5052019;28;20201;-66
2021/05/08 04:47:25;;;;;;;2.73;2.53;;;;;;;18.64;59.57;97732.94;5052060;28;20252;-66
2021/05/08 04:49:57;;;;;;;2.70;2.50;;;;;;;19.03;59.73;97849.28;5052175;28;20201;-67
2021/05/08 04:52:24;;;;;;;3.00;2.73;;;;;;;18.79;60.06;97761.63;5052032;28;20243;-65
2021/05/08 04:54:50;;;;;;;4.00;2.60;;;;;;;19.06;59.78;97804.44;5051476;28;20207;-65
2021/05/08 04:57:16;;;;;;;2.60;2.40;;;;;;;19.22;58.88;97836.56;5068568;28;20217;-65
2021/05/08 04:59:42;;;;;;;2.70;2.50;;;;;;;18.63;59.29;97731.22;5051877;28;20232;-65
2021/05/08 05:02:08;;;;;;;3.13;2.83;;;;;;;19.22;59.42;97834.84;5068845;28;20251;-67
2021/05/08 05:04:35;;;;;;;2.70;2.50;;;;;;;18.68;59.67;97739.94;5051419;28;20235;-66
2021/05/08 05:07:01;;;;;;;2.60;2.40;;;;;;;19.21;59.88;97828.03;5051826;28;20923;-66
2021/05/08 05:09:29;;;;;;;2.80;2.60;;;;;;;19.25;60.07;97841.78;5051520;28;20197;-65
2021/05/08 05:11:55;;;;;;;2.77;2.50;;;;;;;19.11;60.22;97814.81;5051596;28;20225;-66
2021/05/08 05:14:21;;;;;;;2.53;2.33;;;;;;;19.12;60.04;97821.66;5052387;28;20284;-66
2021/05/08 05:16:47;;;;;;;2.43;2.20;;;;;;;19.18;60.12;97829.56;5051819;28;20216;-63
2021/05/08 05:19:13;;;;;;;2.43;2.23;;;;;;;19.25;60.48;97844.31;5052640;28;20288;-66
2021/05/08 05:21:39;;;;;;;2.60;2.40;;;;;;;18.75;60.10;97759.75;5052731;28;20231;-66
2021/05/08 05:24:06;;;;;;;2.73;2.50;;;;;;;18.69;59.80;97751.84;5051416;28;20232;-66
2021/05/08 05:26:32;;;;;;;2.67;2.40;;;;;;;19.25;59.99;97854.53;5067807;28;20260;-66
2021/05/08 05:28:58;;;;;;;2.70;2.50;;;;;;;19.24;59.48;97847.66;5051850;28;20287;-65
2021/05/08 05:31:24;;;;;;;3.40;2.43;;;;;;;19.18;59.63;97838.09;5052701;28;20204;-68
2021/05/08 05:33:51;;;;;;;2.67;2.47;;;;;;;19.10;59.12;97820.72;5052174;28;20193;-67
2021/05/08 05:36:17;;;;;;;3.53;2.90;;;;;;;18.69;57.69;97754.38;5067953;28;20298;-66
2021/05/08 05:38:43;;;;;;;4.70;2.40;;;;;;;19.11;58.36;97818.25;5050787;28;20192;-70
2021/05/08 05:41:09;;;;;;;4.43;2.77;;;;;;;18.76;57.04;97764.91;5051297;28;20208;-65
2021/05/08 05:43:35;;;;;;;2.60;2.40;;;;;;;19.26;57.54;97841.84;5051989;28;20224;-66
2021/05/08 05:46:02;;;;;;;4.97;2.50;;;;;;;18.79;57.61;97764.16;5052508;28;20224;-66
2021/05/08 05:48:28;;;;;;;3.07;2.50;;;;;;;19.28;58.10;97849.59;5117596;22;20247;-68
2021/05/08 05:50:54;;;;;;;2.50;2.30;;;;;;;18.85;58.43;97770.41;5078483;28;20201;-69
2021/05/08 05:53:20;;;;;;;2.30;2.10;;;;;;;19.28;58.66;97845.38;5076299;28;20703;-69
2021/05/08 05:55:46;;;;;;;2.37;2.20;;;;;;;19.27;58.59;97848.69;5092263;28;20264;-69
2021/05/08 05:58:12;;;;;;;2.50;2.30;;;;;;;19.27;58.45;97846.16;5092417;28;20220;-69
2021/05/08 06:00:38;;;;;;;2.53;2.33;;;;;;;19.27;58.75;97843.59;5091590;28;20671;-66
2021/05/08 06:03:05;;;;;;;2.47;2.27;;;;;;;19.28;58.30;97845.38;5092106;28;20223;-66
2021/05/08 06:05:31;;;;;;;3.57;2.17;;;;;;;19.12;56.70;97816.56;5091839;28;20191;-66
2021/05/08 06:07:57;;;;;;;7.17;2.50;;;;;;;19.28;56.17;97842.81;5067757;28;20311;-66
2021/05/08 06:10:23;;;;;;;3.07;2.77;;;;;;;19.29;57.31;97838.56;5086006;28;20211;-66
2021/05/08 06:12:49;;;;;;;2.67;2.20;;;;;;;19.31;57.44;97839.53;5083257;28;20233;-66
2021/05/08 06:15:15;;;;;;;2.13;1.93;;;;;;;19.31;57.63;97834.44;5084088;28;20196;-68
2021/05/08 06:17:41;;;;;;;2.40;2.13;;;;;;;19.32;57.64;97836.16;5085640;28;20276;-66
2021/05/08 06:20:08;;;;;;;2.67;2.23;;;;;;;19.34;57.71;97837.09;5092143;28;20200;-67
2021/05/08 06:22:34;;;;;;;2.40;2.20;;;;;;;19.33;58.10;97826.03;5091694;28;20570;-66
2021/05/08 06:25:00;;;;;;;2.20;2.00;;;;;;;19.33;57.85;97828.56;5090802;28;20579;-65
2021/05/08 06:27:27;;;;;;;2.63;2.43;;;;;;;19.34;57.63;97822.69;5091563;28;20328;-65
2021/05/08 06:29:55;;;;;;;2.10;1.90;;;;;;;19.34;57.98;97821.81;5092770;28;20199;-66
2021/05/08 06:32:21;;;;;;;2.43;2.23;;;;;;;19.19;58.11;97796.50;5093046;28;20234;-64
2021/05/08 06:34:49;;;;;;;3.13;2.07;;;;;;;19.35;57.91;97823.53;5074499;28;20210;-65
2021/05/08 06:37:15;;;;;;;2.30;2.00;;;;;;;19.35;57.95;97821.00;5074658;28;20270;-65
2021/05/08 06:39:41;;;;;;;3.00;2.30;;;;;;;19.36;57.72;97823.63;5092309;28;20219;-65
2021/05/08 06:42:08;;;;;;;2.20;1.90;;;;;;;19.38;57.79;97823.69;5094086;28;20195;-66
2021/05/08 06:44:34;;;;;;;2.87;2.00;;;;;;;19.39;58.11;97823.75;5093826;28;20750;-66
2021/05/08 06:47:00;;;;;;;3.37;1.80;;;;;;;19.41;57.72;97829.78;5093383;28;20272;-65
2021/05/08 06:49:26;;;;;;;2.10;1.90;;;;;;;19.42;57.88;97823.03;5093183;28;20195;-66
2021/05/08 06:51:52;;;;;;;3.03;2.03;;;;;;;19.41;58.18;97822.13;5094172;28;20570;-65
2021/05/08 06:54:18;;;;;;;3.67;2.03;;;;;;;19.42;58.15;97828.97;5093508;28;20227;-66
2021/05/08 06:56:45;;;;;;;1.97;1.87;;;;;;;19.41;57.82;97817.03;5092954;28;20235;-66
2021/05/08 06:59:11;;;;;;;2.03;1.93;;;;;;;19.42;57.49;97817.94;5052005;28;20559;-63
2021/05/08 07:01:40;;;;;;;2.40;2.20;;;;;;;19.42;57.61;97816.22;5077902;28;20675;-66
2021/05/08 07:04:07;;;;;;;3.00;1.90;;;;;;;19.44;57.60;97826.47;5093200;28;20203;-66
2021/05/08 07:06:33;;;;;;;3.10;2.27;;;;;;;19.45;57.80;97820.59;5092990;28;20222;-66
2021/05/08 07:09:00;;;;;;;4.57;2.33;;;;;;;19.44;58.15;97822.28;5092869;28;20238;-67
2021/05/08 07:11:26;;;;;;;2.97;2.07;;;;;;;19.45;57.75;97828.25;5093536;28;20195;-65
2021/05/08 07:13:52;;;;;;;2.33;2.00;;;;;;;19.47;57.67;97826.63;5085525;28;20634;-66
2021/05/08 07:16:18;;;;;;;3.73;2.10;;;;;;;19.46;57.76;97823.22;5093001;28;20223;-66
2021/05/08 07:18:44;;;;;;;1.90;1.80;;;;;;;19.48;57.82;97819.03;5093046;28;20237;-66
2021/05/08 07:21:11;;;;;;;2.07;1.87;;;;;;;19.47;57.73;97812.19;5090738;28;20286;-65
2021/05/08 07:23:37;;;;;;;2.10;1.90;;;;;;;19.49;57.83;97810.59;5090835;28;20271;-66
2021/05/08 07:26:03;;;;;;;2.10;1.90;;;;;;;19.49;57.58;97810.59;5093356;28;20695;-65
2021/05/08 07:28:29;;;;;;;2.80;2.50;;;;;;;19.50;57.92;97803.81;5086579;28;20338;-64
2021/05/08 07:30:55;;;;;;;3.17;2.10;;;;;;;18.04;57.88;97540.31;5091988;28;20196;-66
2021/05/08 07:33:22;;;;;;;7.60;2.30;;;;;;;19.51;57.81;97803.00;5074693;28;20192;-64
2021/05/08 07:35:49;;;;;;;4.13;2.10;;;;;;;19.51;57.91;97796.22;5092830;28;20241;-66
2021/05/08 07:38:15;;;;;;;2.20;2.00;;;;;;;18.29;57.66;97575.31;5091522;28;20222;-66
2021/05/08 07:40:41;;;;;;;4.07;2.00;;;;;;;19.52;57.90;97797.97;5075128;28;20200;-64
2021/05/08 07:43:08;;;;;;;2.70;2.00;;;;;;;19.53;57.93;97788.63;5091995;28;20213;-65
2021/05/08 07:45:34;;;;;;;2.57;2.10;;;;;;;19.52;57.88;97797.97;5082691;28;20191;-65
2021/05/08 07:48:00;;;;;;;3.10;2.20;;;;;;;19.53;57.87;97796.28;5079414;28;20281;-65
2021/05/08 07:50:27;;;;;;;1.70;1.60;;;;;;;19.38;58.01;97771.03;5084952;28;20242;-66
2021/05/08 07:52:54;;;;;;;2.73;1.90;;;;;;;19.51;57.90;97796.22;5047789;28;20191;-66
2021/05/08 07:55:20;;;;;;;1.93;1.60;;;;;;;19.51;57.83;97797.91;5073467;28;20202;-66
2021/05/08 07:57:46;;;;;;;2.10;1.90;;;;;;;19.50;57.84;97797.03;5072465;28;20247;-65
2021/05/08 08:00:13;;;;;;;1.90;1.80;;;;;;;19.51;57.73;97800.47;5092102;28;20201;-65
2021/05/08 08:02:39;;;;;;;2.07;1.70;;;;;;;19.50;57.75;97797.03;5092748;28;20207;-66
2021/05/08 08:05:06;;;;;;;2.20;1.80;;;;;;;19.51;57.75;97795.38;5080959;28;20305;-66
2021/05/08 08:07:32;;;;;;;1.77;1.63;;;;;;;19.50;57.77;97794.47;5069229;28;20269;-64
2021/05/08 08:09:58;;;;;;;2.63;1.80;;;;;;;19.50;58.12;97797.03;5089374;28;20230;-66
2021/05/08 08:12:24;;;;;;;2.50;1.53;;;;;;;19.51;57.86;97796.22;5088899;28;20214;-65
2021/05/08 08:14:51;;;;;;;1.83;1.73;;;;;;;19.34;58.04;97764.09;5088933;28;20192;-64
2021/05/08 08:17:18;;;;;;;1.90;1.80;;;;;;;19.51;57.91;97788.56;5090258;28;20623;-65
2021/05/08 08:19:44;;;;;;;1.97;1.80;;;;;;;19.52;57.94;97790.34;5081591;28;20200;-66
2021/05/08 08:22:10;;;;;;;2.23;1.57;;;;;;;19.53;57.91;97788.63;5072388;28;20245;-65
2021/05/08 08:24:37;;;;;;;1.60;1.50;;;;;;;19.52;57.94;97785.22;5054571;28;20193;-65
2021/05/08 08:27:03;;;;;;;1.70;1.60;;;;;;;16.51;57.89;97331.06;5076128;28;20306;-65
2021/05/08 08:29:29;;;;;;;1.87;1.77;;;;;;;19.54;58.05;97786.16;5090104;28;20287;-65
2021/05/08 08:31:55;;;;;;;2.07;1.80;;;;;;;19.54;57.62;97787.84;5090550;28;20253;-65
2021/05/08 08:34:21;;;;;;;1.73;1.60;;;;;;;19.39;57.95;97759.19;5089448;28;20191;-65
2021/05/08 08:36:47;;;;;;;1.70;1.60;;;;;;;19.53;57.93;97786.09;5080043;28;20188;-65
2021/05/08 08:39:13;;;;;;;1.83;1.57;;;;;;;19.00;58.03;97694.66;5089990;28;20275;-66
2021/05/08 08:41:40;;;;;;;2.17;1.70;;;;;;;19.53;57.81;97783.53;5072023;28;20238;-66
2021/05/08 08:44:09;;;;;;;1.90;1.80;;;;;;;19.51;57.86;97782.63;5088853;28;20232;-65
2021/05/08 08:46:43;;;;;;;4.30;2.00;;;;;;;19.51;57.82;97785.16;5070121;28;20872;-66
2021/05/08 08:49:09;;;;;;;1.57;1.47;;;;;;;19.51;57.87;97785.16;5088993;28;20291;-66
2021/05/08 08:51:36;;;;;;;2.77;1.83;;;;;;;19.50;57.91;97776.66;5090541;28;20245;-66
2021/05/08 08:54:02;;;;;;;1.90;1.70;;;;;;;19.51;58.00;97774.97;5089972;28;20233;-67
2021/05/08 08:56:38;;;;;;;2.20;2.00;;;;;;;19.33;58.07;97741.94;5090393;28;20230;-65
2021/05/08 08:59:13;;;;;;;1.93;1.83;;;;;;;19.50;58.12;97771.53;5064917;28;20279;-66
2021/05/08 09:01:39;;;;;;;1.90;1.80;;;;;;;19.51;58.06;97780.91;5090866;28;20599;-65
2021/05/08 09:04:05;;;;;;;1.63;1.53;;;;;;;19.52;58.00;97779.25;5092516;28;20227;-65
2021/05/08 09:06:31;;;;;;;1.70;1.60;;;;;;;19.52;58.34;97775.03;5094236;28;20570;-65
2021/05/08 09:08:57;;;;;;;1.97;1.77;;;;;;;19.53;58.16;97779.31;5075968;28;20576;-65
2021/05/08 09:11:24;;;;;;;1.70;1.60;;;;;;;19.52;58.07;97775.03;5092611;28;20213;-68
2021/05/08 09:14:20;;;;;;;1.70;1.60;;;;;;;19.53;58.06;97775.88;5093752;28;20200;-68
2021/05/08 09:17:04;;;;;;;1.77;1.50;;;;;;;19.53;58.04;97788.63;5075530;28;20196;-65
2021/05/08 09:19:31;;;;;;;1.60;1.50;;;;;;;19.54;57.90;97764.91;5092864;28;20195;-64
2021/05/08 09:21:57;;;;;;;1.83;1.70;;;;;;;19.53;58.12;97764.03;5076014;28;20195;-65
2021/05/08 09:24:24;;;;;;;1.73;1.50;;;;;;;19.53;58.03;97766.56;5078983;28;20281;-65
2021/05/08 09:26:52;;;;;;;2.00;1.70;;;;;;;19.52;58.07;97761.41;5071948;28;20227;-65
2021/05/08 09:29:24;;;;;;;1.50;1.40;;;;;;;19.52;58.04;97763.97;5077515;28;20242;-65
2021/05/08 09:31:54;;;;;;;3.07;1.40;;;;;;;19.51;58.02;97769.88;5092939;28;20230;-65
2021/05/08 09:34:20;;;;;;;1.50;1.40;;;;;;;19.50;57.98;97769.00;5092284;28;20302;-65
2021/05/08 09:36:53;;;;;;;1.90;1.53;;;;;;;19.30;58.14;97723.97;5092744;28;20230;-65
2021/05/08 09:39:34;;;;;;;1.60;1.50;;;;;;;19.50;58.24;97761.34;5075759;28;20215;-65
2021/05/08 09:42:00;;;;;;;1.80;1.70;;;;;;;19.51;58.15;97752.88;5093740;28;20231;-67
2021/05/08 09:44:26;;;;;;;1.77;1.50;;;;;;;19.50;58.46;97748.59;5089756;28;20272;-66
2021/05/08 09:46:55;;;;;;;1.60;1.50;;;;;;;19.52;58.06;97748.66;5093279;28;20759;-66
2021/05/08 09:49:21;;;;;;;1.73;1.60;;;;;;;19.52;58.25;97748.66;5093548;28;20215;-63
2021/05/08 09:51:57;;;;;;;1.50;1.40;;;;;;;19.52;58.28;97741.91;5092251;28;20195;-66
2021/05/08 09:54:24;;;;;;;1.73;1.63;;;;;;;19.51;58.25;97732.50;5092844;28;20191;-65
2021/05/08 09:56:51;;;;;;;1.60;1.50;;;;;;;19.52;57.81;97735.91;5092811;28;20294;-65
2021/05/08 09:59:26;;;;;;;2.43;1.60;;;;;;;19.53;58.16;97735.97;5091166;28;20188;-64
2021/05/08 10:02:04;;;;;;;1.70;1.60;;;;;;;19.52;58.13;97729.16;5093398;28;20268;-65
2021/05/08 10:04:47;;;;;;;1.53;1.43;;;;;;;19.52;58.26;97721.50;5091911;28;20192;-65
2021/05/08 10:07:25;;;;;;;1.60;1.50;;;;;;;19.52;58.06;97716.41;5072143;28;20216;-65
2021/05/08 10:09:53;;;;;;;1.50;1.40;;;;;;;19.52;58.29;97721.50;5068183;28;20198;-65
2021/05/08 10:12:23;;;;;;;1.50;1.40;;;;;;;19.52;58.30;97725.72;5071583;28;20253;-65
2021/05/08 10:14:51;;;;;;;1.70;1.60;;;;;;;19.51;58.45;97729.09;5087776;28;20199;-65
2021/05/08 10:17:19;;;;;;;1.70;1.60;;;;;;;19.20;58.36;97662.34;5093088;28;20242;-65
2021/05/08 10:19:47;;;;;;;1.77;1.67;;;;;;;19.51;58.42;97707.00;5078032;28;20576;-65
2021/05/08 10:22:13;;;;;;;1.57;1.47;;;;;;;19.51;58.32;97716.34;5086095;28;20218;-66
2021/05/08 10:24:40;;;;;;;1.67;1.57;;;;;;;19.51;58.19;97703.59;5091718;28;20657;-65
2021/05/08 10:27:07;;;;;;;2.90;1.90;;;;;;;19.52;58.13;97710.44;5093474;28;20261;-65
2021/05/08 10:29:36;;;;;;;1.60;1.50;;;;;;;19.51;58.01;97711.25;5094423;28;20272;-66
2021/05/08 10:32:06;;;;;;;1.70;1.60;;;;;;;19.53;58.20;97710.50;5093753;28;20218;-66
2021/05/08 10:34:37;;;;;;;1.60;1.50;;;;;;;19.52;58.05;97711.31;5094371;28;20575;-65
2021/05/08 10:37:06;;;;;;;1.77;1.67;;;;;;;19.53;58.37;97709.59;5093757;28;20310;-65
2021/05/08 10:40:04;;;;;;;2.10;1.33;;;;;;;19.53;58.11;97705.38;5089040;28;20215;-66
2021/05/08 10:42:40;;;;;;;1.43;1.33;;;;;;;19.54;58.06;97703.72;5093784;28;20595;-66
2021/05/08 10:45:13;;;;;;;1.40;1.30;;;;;;;19.53;58.14;97692.66;5094309;28;20222;-66
2021/05/08 10:47:57;;;;;;;1.60;1.50;;;;;;;19.52;58.29;97698.56;5093722;28;20223;-63
2021/05/08 10:50:27;;;;;;;1.70;1.60;;;;;;;19.40;58.15;97682.78;5080471;28;20192;-66
2021/05/08 10:53:12;;;;;;;1.40;1.30;;;;;;;19.52;58.12;97701.13;5089451;28;20192;-65
2021/05/08 10:55:42;;;;;;;1.60;1.50;;;;;;;19.52;58.16;97695.13;5085626;28;20242;-66
2021/05/08 10:58:14;;;;;;;1.50;1.40;;;;;;;19.51;58.27;97696.81;5072288;28;20246;-66
2021/05/08 11:00:47;;;;;;;1.37;1.27;;;;;;;19.34;58.24;97656.19;5073522;28;20894;-65
2021/05/08 11:03:14;;;;;;;1.60;1.50;;;;;;;13.43;57.82;96626.75;5060000;28;20237;-66
2021/05/08 11:06:03;;;;;;;1.40;1.30;;;;;;;16.48;58.05;97232.00;5069621;28;20239;-65
2021/05/08 11:08:30;;;;;;;1.70;1.60;;;;;;;19.51;58.36;97676.41;5080563;28;20237;-66
2021/05/08 11:10:56;;;;;;;1.53;1.37;;;;;;;19.51;58.35;97673.00;5093791;28;20245;-66
2021/05/08 11:13:24;;;;;;;2.00;1.43;;;;;;;19.06;58.38;97599.78;5093446;28;20553;-66
2021/05/08 11:15:50;;;;;;;2.30;1.50;;;;;;;19.50;58.36;97664.50;5076341;28;20238;-66
2021/05/08 11:18:39;;;;;;;1.80;1.50;;;;;;;19.51;58.49;97667.91;5093605;28;20287;-66
2021/05/08 11:21:11;;;;;;;1.70;1.60;;;;;;;19.51;58.35;97663.66;5092503;28;20188;-66
2021/05/08 11:23:55;;;;;;;1.80;1.70;;;;;;;19.22;58.52;97608.09;5093782;28;20245;-65
2021/05/08 11:26:30;;;;;;;1.53;1.40;;;;;;;19.53;58.46;97656.06;5093658;28;20585;-66
2021/05/08 11:29:19;;;;;;;1.50;1.40;;;;;;;19.35;58.49;97625.66;5092913;28;20231;-66
2021/05/08 11:31:46;;;;;;;1.40;1.30;;;;;;;19.23;58.54;97597.13;5093297;28;20261;-66
2021/05/08 11:34:15;;;;;;;1.60;1.50;;;;;;;19.52;58.57;97646.69;5091283;28;20287;-64
2021/05/08 11:36:54;;;;;;;2.03;1.50;;;;;;;19.52;58.47;97646.69;5074704;28;20291;-65